Time;durP1;ratioP1;P1;durP2;ratioP2;P2;SDS_P1;SDS_P2;PMS_P1;PMS_P2;Temp;Humidity;BMP_temperature;BMP_pressure;BME280_temperature;BME280_humidity;BME280_pressure;Samples;Min_cycle;Max_cycle;Signal;HPM_P1;HPM_P2
2022/12/15 00:39:20;;;;;;;25.73;18.00;;;3.00;99.90;;;;;;5052254;28;20680;-63
2022/12/15 00:41:47;;;;;;;25.63;18.73;;;3.00;99.90;;;;;;5052807;28;20213;-63
2022/12/15 00:44:13;;;;;;;27.70;19.10;;;3.00;99.90;;;;;;5052749;28;20217;-63
2022/12/15 00:46:55;;;;;;;25.47;19.03;;;3.00;99.90;;;;;;5052879;28;20225;-63
2022/12/15 01:22:24;;;;;;;27.67;18.27;;;2.60;99.90;;;;;;5052199;28;20608;-63
2022/12/15 01:24:50;;;;;;;26.23;17.97;;;2.30;99.90;;;;;;5052321;28;20259;-62
2022/12/15 01:27:17;;;;;;;26.17;18.13;;;2.10;99.90;;;;;;5052481;28;20578;-63
2022/12/15 01:29:44;;;;;;;27.53;17.97;;;2.10;99.90;;;;;;5051502;28;20228;-63
2022/12/15 01:32:11;;;;;;;26.30;18.53;;;1.90;99.90;;;;;;5052126;28;20222;-63
2022/12/15 01:34:38;;;;;;;30.60;18.93;;;1.50;99.90;;;;;;5051867;28;20206;-63
2022/12/15 01:37:05;;;;;;;27.13;18.67;;;1.50;99.90;;;;;;5052093;28;20229;-64
2022/12/15 01:42:14;;;;;;;26.83;18.73;;;1.90;99.90;;;;;;5051543;28;20208;-64
2022/12/15 01:44:40;;;;;;;30.10;20.10;;;2.00;99.90;;;;;;5051909;28;20209;-64
2022/12/15 01:47:12;;;;;;;26.33;19.53;;;2.20;99.90;;;;;;5051618;28;20229;-64
2022/12/15 01:49:39;;;;;;;32.17;21.17;;;2.40;99.90;;;;;;5051090;28;20205;-64
2022/12/15 01:52:07;;;;;;;27.20;19.13;;;2.50;99.90;;;;;;5051931;28;20213;-64
2022/12/15 01:54:41;;;;;;;29.20;19.63;;;2.60;99.90;;;;;;5051592;28;20304;-65
2022/12/15 01:57:12;;;;;;;26.40;18.57;;;2.70;99.90;;;;;;5051612;28;20229;-64
2022/12/15 01:59:47;;;;;;;28.20;19.20;;;2.70;99.90;;;;;;5051020;28;20206;-65
2022/12/15 02:02:16;;;;;;;29.33;19.17;;;2.60;99.90;;;;;;5051975;28;20282;-64
2022/12/15 02:04:44;;;;;;;27.00;18.23;;;2.20;99.90;;;;;;5051796;28;20292;-65
2022/12/15 02:07:13;;;;;;;28.07;18.63;;;1.80;99.90;;;;;;5051745;28;20225;-64
2022/12/15 02:09:42;;;;;;;31.23;19.60;;;1.50;99.90;;;;;;5051084;28;20300;-64
2022/12/15 02:12:18;;;;;;;28.53;18.70;;;1.50;99.90;;;;;;5052711;28;20292;-64
2022/12/15 02:14:53;;;;;;;29.27;19.20;;;1.30;99.90;;;;;;5055621;28;20548;-64
2022/12/15 02:17:33;;;;;;;33.70;19.73;;;1.40;99.90;;;;;;5055608;28;20229;-64
2022/12/15 02:20:44;;;;;;;29.57;19.33;;;1.50;99.90;;;;;;5055025;28;20583;-65
2022/12/15 02:23:34;;;;;;;27.77;19.33;;;1.60;99.90;;;;;;5055720;28;20585;-64
2022/12/15 02:26:22;;;;;;;26.77;18.23;;;1.60;99.90;;;;;;5055470;28;20214;-64
2022/12/15 02:29:02;;;;;;;26.90;18.87;;;1.70;99.90;;;;;;5054852;28;20581;-64
2022/12/15 02:31:52;;;;;;;28.93;20.00;;;1.90;99.90;;;;;;5055603;28;20228;-64
2022/12/15 02:34:26;;;;;;;30.60;18.93;;;2.00;99.90;;;;;;5055188;28;20209;-65
2022/12/15 02:36:57;;;;;;;28.47;18.93;;;2.20;99.90;;;;;;5055311;28;20234;-64
2022/12/15 02:39:25;;;;;;;29.57;19.30;;;2.10;99.90;;;;;;5054510;28;20206;-65
2022/12/15 02:41:52;;;;;;;31.97;19.73;;;1.80;99.90;;;;;;5055130;28;20658;-64
2022/12/15 02:44:22;;;;;;;28.13;18.77;;;1.40;99.90;;;;;;5055273;28;20201;-64
2022/12/15 02:47:12;;;;;;;28.23;19.10;;;1.00;99.90;;;;;;5054991;28;20772;-64
2022/12/15 02:49:54;;;;;;;31.57;19.37;;;0.90;99.90;;;;;;5052449;28;20213;-64
2022/12/15 02:52:34;;;;;;;31.53;19.33;;;1.10;99.90;;;;;;5055168;28;20209;-64
2022/12/15 02:55:11;;;;;;;31.37;20.60;;;1.30;99.90;;;;;;5054941;28;20630;-64
2022/12/15 02:57:48;;;;;;;28.57;19.67;;;1.60;99.90;;;;;;5054774;28;20318;-65
2022/12/15 03:00:16;;;;;;;31.43;20.37;;;1.80;99.90;;;;;;5054134;28;20232;-65
2022/12/15 03:02:49;;;;;;;30.60;20.27;;;1.90;99.90;;;;;;5054647;28;20202;-64
2022/12/15 03:05:18;;;;;;;27.93;18.73;;;2.10;99.90;;;;;;5054824;28;20209;-64
2022/12/15 03:07:45;;;;;;;31.47;19.57;;;2.20;99.90;;;;;;5054599;28;20569;-64
2022/12/15 03:10:13;;;;;;;28.87;19.30;;;2.30;99.90;;;;;;5053911;28;20216;-64
2022/12/15 03:12:40;;;;;;;26.87;19.53;;;2.40;99.90;;;;;;5054999;28;20212;-64
2022/12/15 03:15:08;;;;;;;29.93;20.27;;;2.30;99.90;;;;;;5054535;28;20292;-64
2022/12/15 03:17:34;;;;;;;26.40;18.20;;;2.10;99.90;;;;;;5054218;28;20706;-65
2022/12/15 03:20:03;;;;;;;29.13;19.47;;;2.10;99.90;;;;;;5053925;28;20205;-64
2022/12/15 03:22:30;;;;;;;29.87;18.90;;;2.20;99.90;;;;;;5053971;28;20205;-63
2022/12/15 03:24:57;;;;;;;30.53;19.67;;;2.20;99.90;;;;;;5054244;28;20209;-64
2022/12/15 03:27:23;;;;;;;28.80;18.73;;;2.20;99.90;;;;;;5054093;28;20226;-64
2022/12/15 03:29:50;;;;;;;29.20;19.70;;;2.20;99.90;;;;;;5053725;28;20213;-64
2022/12/15 03:32:17;;;;;;;30.23;19.37;;;2.20;99.90;;;;;;5054116;28;20692;-64
2022/12/15 03:34:44;;;;;;;30.30;19.97;;;2.20;99.90;;;;;;5054327;28;20477;-65
2022/12/15 03:37:12;;;;;;;30.27;20.60;;;2.20;99.90;;;;;;5053820;28;20237;-64
2022/12/15 03:39:38;;;;;;;31.83;19.97;;;2.30;99.90;;;;;;5053303;28;20202;-64
2022/12/15 03:42:05;;;;;;;28.97;19.73;;;2.40;99.90;;;;;;5053788;28;20209;-65
2022/12/15 03:44:32;;;;;;;29.47;19.97;;;2.40;99.90;;;;;;5054119;28;20210;-64
2022/12/15 03:46:59;;;;;;;28.23;18.60;;;2.40;99.90;;;;;;5053817;28;20222;-65
2022/12/15 03:49:25;;;;;;;28.80;19.50;;;2.50;99.90;;;;;;5053157;28;20650;-64
2022/12/15 03:51:52;;;;;;;30.87;20.33;;;2.50;99.90;;;;;;5053976;28;20202;-64
2022/12/15 03:54:20;;;;;;;28.33;19.40;;;2.50;99.90;;;;;;5053675;28;20209;-65
2022/12/15 03:56:48;;;;;;;30.07;20.97;;;2.50;99.90;;;;;;5053374;28;20740;-64
2022/12/15 03:59:15;;;;;;;29.83;19.47;;;2.50;99.90;;;;;;5053119;28;20252;-64
2022/12/15 04:01:46;;;;;;;28.93;20.40;;;2.60;99.90;;;;;;5053729;28;20205;-64
2022/12/15 04:04:13;;;;;;;28.10;20.00;;;2.60;99.90;;;;;;5053627;28;20291;-64
2022/12/15 04:06:39;;;;;;;28.63;19.50;;;2.50;99.90;;;;;;5053446;28;20229;-65
2022/12/15 04:09:06;;;;;;;30.07;19.23;;;2.60;99.90;;;;;;5052440;28;20206;-65
2022/12/15 04:11:34;;;;;;;30.03;19.63;;;2.60;99.90;;;;;;5053247;28;20664;-64
2022/12/15 04:14:02;;;;;;;29.93;18.80;;;2.60;99.90;;;;;;5053487;28;20221;-64
2022/12/15 04:16:29;;;;;;;29.77;20.20;;;2.70;99.90;;;;;;5053163;28;20213;-64
2022/12/15 04:21:36;;;;;;;29.30;19.67;;;2.80;99.90;;;;;;5052861;28;20204;-64
2022/12/15 05:32:37;;;;;;;29.23;19.73;;;2.60;99.90;;;;;;5052010;28;20204;-64
2022/12/15 05:35:04;;;;;;;30.40;20.63;;;2.50;99.90;;;;;;5051963;28;20274;-64
2022/12/15 05:37:31;;;;;;;31.63;19.97;;;2.50;99.90;;;;;;5051544;28;20233;-64
2022/12/15 05:39:57;;;;;;;26.10;18.80;;;2.40;99.90;;;;;;5051418;28;20213;-64
2022/12/15 05:42:24;;;;;;;30.77;20.57;;;2.40;99.90;;;;;;5051565;28;20205;-64
2022/12/15 05:44:51;;;;;;;32.07;22.07;;;2.40;99.90;;;;;;5051606;28;20240;-64
2022/12/15 05:47:18;;;;;;;36.73;21.53;;;2.40;99.90;;;;;;5051431;28;20229;-64
2022/12/15 05:49:46;;;;;;;33.50;20.80;;;2.40;99.90;;;;;;5051358;28;20205;-64
2022/12/15 05:52:12;;;;;;;27.57;19.83;;;2.50;99.90;;;;;;5051727;28;20208;-64
2022/12/15 05:54:39;;;;;;;30.60;19.53;;;2.50;99.90;;;;;;5051771;28;20209;-64
2022/12/15 05:57:06;;;;;;;28.77;18.70;;;2.40;99.90;;;;;;5051558;28;20226;-64
2022/12/15 05:59:32;;;;;;;31.17;20.77;;;2.30;99.90;;;;;;5050852;28;20225;-64
2022/12/15 06:01:59;;;;;;;31.50;20.30;;;2.20;99.90;;;;;;5051891;28;20205;-64
2022/12/15 06:04:26;;;;;;;32.83;20.23;;;2.10;99.90;;;;;;5051666;28;20576;-64
2022/12/15 06:06:54;;;;;;;33.37;21.80;;;2.00;99.90;;;;;;5051373;28;20236;-64
2022/12/15 06:09:21;;;;;;;33.47;21.50;;;2.00;99.90;;;;;;5050918;28;20201;-64
2022/12/15 06:11:47;;;;;;;31.73;20.37;;;2.00;99.90;;;;;;5051608;28;20892;-64
2022/12/15 06:14:14;;;;;;;31.20;20.73;;;2.00;99.90;;;;;;5051296;28;20208;-64
2022/12/15 06:16:41;;;;;;;33.70;22.13;;;2.10;99.90;;;;;;5051436;28;20230;-64
2022/12/15 06:19:08;;;;;;;32.10;20.20;;;2.20;99.90;;;;;;5050693;28;20233;-63
2022/12/15 06:21:36;;;;;;;32.00;20.80;;;2.20;99.90;;;;;;5051441;28;20255;-64
2022/12/15 06:24:05;;;;;;;35.97;21.20;;;2.20;99.90;;;;;;5051407;28;20553;-64
2022/12/15 06:26:34;;;;;;;33.23;20.83;;;2.20;99.90;;;;;;5051003;28;20637;-63
2022/12/15 06:29:02;;;;;;;29.73;19.93;;;2.10;99.90;;;;;;5050761;28;20205;-64
2022/12/15 06:31:30;;;;;;;29.60;20.13;;;2.10;99.90;;;;;;5051190;28;20201;-64
2022/12/15 06:33:58;;;;;;;35.97;23.33;;;2.20;99.90;;;;;;5051526;28;20236;-64
2022/12/15 06:36:27;;;;;;;28.33;19.43;;;2.30;99.90;;;;;;5050991;28;20213;-63
2022/12/15 06:38:54;;;;;;;33.00;20.87;;;2.30;99.90;;;;;;5050556;28;20716;-64
2022/12/15 06:41:22;;;;;;;30.83;19.73;;;2.30;99.90;;;;;;5051017;28;20232;-63
2022/12/15 06:43:54;;;;;;;33.73;20.37;;;2.30;99.90;;;;;;5051212;28;20236;-63
2022/12/15 06:46:22;;;;;;;30.67;19.77;;;2.30;99.90;;;;;;5050939;28;20689;-64
2022/12/15 06:48:50;;;;;;;31.77;21.73;;;2.20;99.90;;;;;;5050262;28;20213;-64
2022/12/15 06:51:17;;;;;;;31.63;21.63;;;2.10;99.90;;;;;;5051117;28;20236;-64
2022/12/15 06:53:47;;;;;;;32.93;22.00;;;2.10;99.90;;;;;;5051117;28;20301;-63
2022/12/15 06:56:18;;;;;;;30.37;18.97;;;2.00;99.90;;;;;;5051219;28;20296;-63
2022/12/15 06:58:47;;;;;;;34.17;20.30;;;1.90;99.90;;;;;;5052424;28;20307;-64
2022/12/15 07:01:14;;;;;;;31.37;19.53;;;1.90;99.90;;;;;;5054708;28;20210;-64
2022/12/15 07:03:41;;;;;;;30.00;19.37;;;1.90;99.90;;;;;;5054499;28;20285;-63
2022/12/15 07:06:11;;;;;;;29.17;18.93;;;1.90;99.90;;;;;;5054276;28;20220;-67
2022/12/15 07:08:38;;;;;;;33.53;19.77;;;1.90;99.90;;;;;;5054413;28;20604;-65
2022/12/15 07:11:06;;;;;;;34.60;19.40;;;1.90;99.90;;;;;;5054342;28;20216;-63
2022/12/15 07:13:33;;;;;;;40.73;20.17;;;2.00;99.90;;;;;;5054611;28;20206;-62
2022/12/15 07:16:03;;;;;;;37.47;20.53;;;2.00;99.90;;;;;;5054334;28;20311;-64
2022/12/15 07:18:30;;;;;;;37.17;19.80;;;1.90;99.90;;;;;;5054099;28;20316;-62
2022/12/15 07:21:02;;;;;;;31.73;19.40;;;1.90;99.90;;;;;;5054119;28;20210;-65
2022/12/15 07:23:28;;;;;;;33.57;20.43;;;1.90;99.90;;;;;;5054361;28;20309;-64
2022/12/15 07:25:55;;;;;;;38.70;21.17;;;2.00;99.90;;;;;;5054831;28;20230;-65
2022/12/15 07:28:22;;;;;;;35.20;19.97;;;2.10;99.90;;;;;;5053928;28;20595;-64
2022/12/15 07:30:48;;;;;;;29.93;18.03;;;2.20;99.90;;;;;;5053419;28;20681;-67
2022/12/15 07:33:16;;;;;;;31.27;19.27;;;2.40;99.90;;;;;;5053843;28;20217;-63
2022/12/15 07:35:51;;;;;;;30.17;18.80;;;2.50;99.90;;;;;;5054178;28;20205;-62
2022/12/15 07:38:18;;;;;;;31.20;18.93;;;2.60;99.90;;;;;;5054209;28;20240;-62
2022/12/15 07:40:45;;;;;;;35.23;20.20;;;2.70;99.90;;;;;;5053427;28;20206;-63
2022/12/15 07:43:12;;;;;;;29.97;18.20;;;2.70;99.90;;;;;;5053972;28;20263;-62
2022/12/15 07:45:38;;;;;;;27.97;17.27;;;2.80;99.90;;;;;;5053750;28;20217;-63
2022/12/15 07:48:06;;;;;;;32.60;17.37;;;3.00;99.90;;;;;;5053632;28;20225;-63
2022/12/15 07:50:34;;;;;;;29.43;18.07;;;3.00;99.90;;;;;;5053290;28;20205;-62
2022/12/15 07:53:00;;;;;;;26.87;17.37;;;3.10;99.90;;;;;;5053873;28;20216;-62
2022/12/15 07:55:27;;;;;;;27.53;17.63;;;3.20;99.90;;;;;;5053612;28;20210;-62
2022/12/15 07:57:54;;;;;;;27.07;16.83;;;3.30;99.90;;;;;;5053371;28;20249;-63
2022/12/15 08:00:20;;;;;;;31.17;18.97;;;3.10;99.90;;;;;;5052769;28;20206;-63
2022/12/15 08:02:47;;;;;;;28.73;18.27;;;3.10;99.90;;;;;;5053571;28;20213;-63
2022/12/15 08:05:14;;;;;;;27.73;17.53;;;3.20;99.90;;;;;;5053439;28;20213;-65
2022/12/15 08:07:42;;;;;;;32.43;18.87;;;3.30;99.90;;;;;;5053305;28;20221;-64
2022/12/15 08:10:09;;;;;;;32.03;19.17;;;3.40;99.90;;;;;;5051672;28;20706;-63
2022/12/15 08:12:36;;;;;;;27.23;17.97;;;3.40;99.90;;;;;;5053290;28;20229;-64
2022/12/15 08:15:03;;;;;;;26.90;16.57;;;3.50;99.90;;;;;;5052978;28;20208;-63
2022/12/15 08:17:30;;;;;;;28.80;18.60;;;3.70;99.90;;;;;;5052952;28;20230;-64
2022/12/15 08:19:57;;;;;;;29.67;18.50;;;3.70;99.90;;;;;;5052614;28;20225;-64
2022/12/15 08:22:24;;;;;;;29.87;18.07;;;3.80;99.90;;;;;;5053156;28;20695;-63
2022/12/15 08:24:52;;;;;;;28.43;18.27;;;3.80;99.90;;;;;;5053141;28;20750;-64
2022/12/15 08:27:20;;;;;;;26.40;16.83;;;4.00;99.90;;;;;;5053027;28;20233;-64
2022/12/15 08:29:47;;;;;;;26.90;17.67;;;4.00;99.90;;;;;;5052302;28;20678;-64
2022/12/15 08:32:14;;;;;;;25.37;17.33;;;4.00;99.90;;;;;;5052814;28;20548;-63
2022/12/15 08:34:41;;;;;;;25.03;16.53;;;4.00;99.90;;;;;;5053010;28;20235;-64
2022/12/15 08:37:08;;;;;;;28.17;18.37;;;4.10;99.90;;;;;;5052661;28;20237;-63
2022/12/15 08:39:35;;;;;;;27.70;17.50;;;4.20;99.90;;;;;;5052032;28;20702;-64
2022/12/15 08:42:03;;;;;;;26.87;17.73;;;4.30;99.90;;;;;;5052827;28;20585;-64
2022/12/15 08:44:30;;;;;;;28.50;18.40;;;4.40;99.90;;;;;;5052789;28;20213;-64
2022/12/15 08:46:56;;;;;;;27.80;18.37;;;4.50;99.90;;;;;;5053189;28;20229;-64
2022/12/15 08:49:24;;;;;;;30.17;19.47;;;4.60;99.90;;;;;;5052332;28;20212;-64
2022/12/15 08:51:51;;;;;;;35.37;21.20;;;4.60;99.90;;;;;;5052859;28;20236;-64
2022/12/15 08:54:19;;;;;;;30.03;19.43;;;4.70;99.90;;;;;;5052797;28;20591;-63
2022/12/15 08:56:46;;;;;;;31.30;18.83;;;4.70;99.90;;;;;;5052582;28;20275;-64
2022/12/15 08:59:14;;;;;;;32.13;19.23;;;4.70;99.90;;;;;;5051749;28;20694;-64
2022/12/15 09:01:42;;;;;;;28.27;18.23;;;4.80;99.90;;;;;;5052634;28;20442;-63
2022/12/15 09:04:08;;;;;;;28.33;17.27;;;4.90;99.90;;;;;;5052882;28;20209;-64
2022/12/15 09:06:36;;;;;;;29.90;19.37;;;5.10;99.90;;;;;;5052388;28;20233;-64
2022/12/15 09:09:07;;;;;;;27.60;18.20;;;5.20;99.90;;;;;;5051299;28;20380;-64
2022/12/15 09:11:34;;;;;;;25.57;17.13;;;5.20;99.90;;;;;;5052656;28;20206;-64
2022/12/15 09:14:01;;;;;;;28.23;17.97;;;5.30;99.90;;;;;;5052483;28;20210;-64
2022/12/15 09:16:29;;;;;;;25.33;17.67;;;5.40;99.90;;;;;;5052183;28;20331;-63
2022/12/15 09:18:57;;;;;;;24.93;17.07;;;5.40;99.90;;;;;;5051357;28;20236;-64
2022/12/15 09:21:26;;;;;;;27.17;18.03;;;5.50;99.90;;;;;;5051827;28;20208;-64
2022/12/15 09:23:57;;;;;;;31.57;18.53;;;5.50;99.90;;;;;;5052193;28;20221;-64
2022/12/15 09:26:24;;;;;;;28.33;18.40;;;5.40;99.90;;;;;;5052068;28;20296;-64
2022/12/15 09:28:51;;;;;;;28.23;19.47;;;5.40;99.90;;;;;;5052047;28;20201;-63
2022/12/15 09:31:20;;;;;;;32.50;19.83;;;5.40;99.90;;;;;;5051641;28;20233;-64
2022/12/15 09:33:50;;;;;;;26.83;17.57;;;5.20;99.90;;;;;;5051866;28;20215;-63
2022/12/15 09:36:16;;;;;;;25.60;17.50;;;5.20;99.90;;;;;;5051698;28;20697;-64
2022/12/15 09:38:44;;;;;;;27.13;18.03;;;5.30;99.90;;;;;;5052243;28;20221;-63
2022/12/15 09:41:21;;;;;;;24.87;16.90;;;5.30;99.90;;;;;;5052003;28;20209;-64
2022/12/15 09:43:54;;;;;;;27.23;18.83;;;5.30;99.90;;;;;;5052147;28;20236;-63
2022/12/15 09:46:30;;;;;;;26.27;18.40;;;5.40;99.90;;;;;;5052077;28;20499;-64
2022/12/15 09:49:04;;;;;;;29.53;18.37;;;5.40;99.90;;;;;;5051186;28;20220;-62
2022/12/15 09:51:39;;;;;;;29.90;18.73;;;5.40;99.90;;;;;;5051890;28;20692;-62
2022/12/15 09:54:08;;;;;;;26.93;16.47;;;5.30;99.90;;;;;;5051811;28;20209;-63
2022/12/15 09:56:41;;;;;;;29.00;18.50;;;5.20;99.90;;;;;;5051624;28;20233;-64
2022/12/15 09:59:23;;;;;;;25.40;17.43;;;5.20;99.90;;;;;;5050884;28;20221;-62
2022/12/15 10:02:00;;;;;;;25.40;17.13;;;5.10;99.90;;;;;;5051689;28;20282;-62
2022/12/15 10:04:38;;;;;;;23.97;17.07;;;5.00;99.90;;;;;;5051464;28;20690;-62
2022/12/15 10:07:13;;;;;;;27.37;17.93;;;5.00;99.90;;;;;;5051407;28;20236;-62
2022/12/15 10:09:40;;;;;;;25.50;17.03;;;5.00;99.90;;;;;;5050809;28;20232;-62
2022/12/15 10:12:12;;;;;;;26.60;17.90;;;5.00;99.90;;;;;;5051738;28;20209;-63
2022/12/15 10:14:42;;;;;;;27.17;18.37;;;4.90;99.90;;;;;;5051651;28;20206;-63
2022/12/15 10:17:20;;;;;;;26.40;18.20;;;5.00;99.90;;;;;;5051345;28;20229;-62
2022/12/15 10:19:54;;;;;;;28.97;17.37;;;5.20;99.90;;;;;;5050665;28;20320;-63
2022/12/15 10:22:24;;;;;;;26.53;16.53;;;5.30;99.90;;;;;;5051606;28;20209;-63
2022/12/15 10:24:53;;;;;;;27.67;17.47;;;5.40;99.90;;;;;;5051538;28;20202;-63
2022/12/15 10:27:44;;;;;;;24.70;17.43;;;5.00;99.90;;;;;;5051415;28;20237;-66
2022/12/15 10:30:12;;;;;;;25.03;16.70;;;4.60;99.90;;;;;;5050808;28;20205;-62
2022/12/15 10:32:48;;;;;;;26.97;18.13;;;4.70;99.90;;;;;;5051423;28;20205;-63
2022/12/15 10:35:20;;;;;;;26.67;16.77;;;4.90;99.90;;;;;;5055292;28;20201;-62
2022/12/15 10:37:47;;;;;;;27.00;17.50;;;4.70;99.90;;;;;;5054988;28;20246;-62
2022/12/15 10:40:20;;;;;;;24.97;16.40;;;4.30;99.90;;;;;;5054391;28;20221;-62
2022/12/15 10:42:49;;;;;;;25.80;17.43;;;4.30;99.90;;;;;;5055248;28;20209;-61
2022/12/15 10:45:34;;;;;;;29.00;19.40;;;4.50;99.90;;;;;;5055226;28;20247;-62
2022/12/15 10:48:02;;;;;;;25.97;17.57;;;4.70;99.90;;;;;;5054845;28;20591;-62
2022/12/15 10:50:30;;;;;;;25.23;17.53;;;4.90;99.90;;;;;;5054426;28;20202;-66
2022/12/15 10:52:58;;;;;;;28.00;18.27;;;5.10;99.90;;;;;;5054884;28;20209;-66
2022/12/15 10:55:32;;;;;;;25.40;17.53;;;5.20;99.90;;;;;;5054887;28;20232;-65
2022/12/15 10:58:01;;;;;;;25.20;17.13;;;5.30;99.90;;;;;;5054090;28;20409;-63
2022/12/15 11:00:31;;;;;;;24.40;17.03;;;5.30;99.90;;;;;;5049055;28;20229;-68
2022/12/15 11:02:58;;;;;;;25.10;17.33;;;5.20;99.90;;;;;;5053994;28;20216;-64
2022/12/15 11:05:26;;;;;;;26.97;18.27;;;5.20;99.90;;;;;;5053463;28;20693;-64
2022/12/15 11:07:56;;;;;;;25.97;18.50;;;5.20;99.90;;;;;;5053542;28;20863;-67
2022/12/15 11:10:25;;;;;;;26.93;17.90;;;5.00;99.90;;;;;;5052595;28;20208;-68
2022/12/15 11:12:59;;;;;;;25.07;17.60;;;4.90;99.90;;;;;;5053573;28;20691;-66
2022/12/15 11:15:53;;;;;;;27.53;18.00;;;5.10;99.90;;;;;;5053863;28;20233;-68
2022/12/15 11:18:36;;;;;;;24.40;16.40;;;4.90;99.90;;;;;;5053023;28;20742;-67
2022/12/15 11:21:07;;;;;;;23.93;16.77;;;4.90;99.90;;;;;;5052655;28;20236;-69
2022/12/15 11:23:49;;;;;;;24.97;16.97;;;4.90;99.90;;;;;;5054699;28;20300;-69
2022/12/15 11:26:25;;;;;;;25.37;17.07;;;4.90;99.90;;;;;;5054241;28;20213;-68
2022/12/15 11:28:58;;;;;;;23.53;16.70;;;5.10;99.90;;;;;;5054280;28;20209;-65
2022/12/15 11:31:32;;;;;;;23.83;17.07;;;5.20;99.90;;;;;;5053793;28;20205;-65
2022/12/15 11:33:58;;;;;;;25.07;16.63;;;5.30;99.90;;;;;;5054699;28;20229;-65
2022/12/15 11:36:46;;;;;;;23.60;16.67;;;5.50;99.90;;;;;;5053758;28;20743;-66
2022/12/15 11:39:23;;;;;;;25.17;16.33;;;5.50;99.90;;;;;;5053213;28;20205;-65
2022/12/15 11:41:57;;;;;;;24.03;16.67;;;5.40;99.90;;;;;;5054227;28;20252;-65
2022/12/15 11:44:27;;;;;;;24.70;16.83;;;5.10;99.90;;;;;;5054005;28;20210;-65
2022/12/15 11:47:08;;;;;;;25.90;17.40;;;5.00;99.90;;;;;;5053739;28;20237;-64
2022/12/15 11:49:54;;;;;;;21.83;16.23;;;5.00;99.90;;;;;;5053102;28;20205;-65
2022/12/15 11:52:37;;;;;;;26.37;17.30;;;5.10;99.90;;;;;;5054142;28;20209;-65
2022/12/15 11:55:12;;;;;;;24.93;17.40;;;5.20;99.90;;;;;;5054229;28;20581;-66
2022/12/15 11:57:54;;;;;;;24.53;17.67;;;5.30;99.90;;;;;;5053794;28;20236;-65
2022/12/15 12:00:22;;;;;;;26.40;18.00;;;5.40;99.90;;;;;;5053190;28;20229;-64
2022/12/15 12:03:01;;;;;;;27.03;17.57;;;5.50;99.90;;;;;;5053700;28;20296;-65
2022/12/15 12:05:53;;;;;;;24.93;16.63;;;5.50;99.90;;;;;;5053936;28;20209;-65
2022/12/15 12:08:36;;;;;;;23.10;16.13;;;5.70;99.90;;;;;;5053384;28;20265;-65
2022/12/15 12:11:12;;;;;;;24.17;17.10;;;5.80;99.90;;;;;;5053160;28;20201;-65
2022/12/15 12:13:50;;;;;;;23.70;16.60;;;5.70;99.90;;;;;;5053383;28;20236;-65
2022/12/15 12:16:28;;;;;;;26.00;17.20;;;5.60;99.90;;;;;;5053124;28;20317;-65
2022/12/15 12:19:00;;;;;;;25.33;16.90;;;5.50;99.90;;;;;;5053278;28;20635;-66
2022/12/15 12:21:31;;;;;;;23.97;16.50;;;5.60;99.90;;;;;;5052857;28;20256;-65
2022/12/15 12:24:03;;;;;;;24.80;17.23;;;5.50;99.90;;;;;;5053206;28;20213;-65
2022/12/15 12:26:39;;;;;;;26.70;18.33;;;5.50;99.90;;;;;;5052778;28;20244;-65
2022/12/15 12:29:12;;;;;;;24.87;16.87;;;5.50;99.90;;;;;;5053073;28;20680;-65
2022/12/15 12:31:46;;;;;;;27.47;18.53;;;5.50;99.90;;;;;;5053253;28;20606;-65
2022/12/15 12:34:22;;;;;;;27.40;18.07;;;5.50;99.90;;;;;;5053454;28;20224;-63
2022/12/15 12:36:50;;;;;;;25.93;17.27;;;5.60;99.90;;;;;;5052613;28;20233;-65
2022/12/15 12:39:22;;;;;;;28.53;18.00;;;5.70;99.90;;;;;;5052669;28;20244;-65
2022/12/15 12:41:56;;;;;;;24.27;17.03;;;5.70;99.90;;;;;;5053254;28;20210;-65
2022/12/15 12:44:30;;;;;;;25.07;16.83;;;5.80;99.90;;;;;;5053731;28;20212;-65
2022/12/15 12:46:58;;;;;;;23.20;16.33;;;5.80;99.90;;;;;;5053246;28;20236;-65
2022/12/15 12:49:29;;;;;;;25.47;17.33;;;5.80;99.90;;;;;;5052278;28;20574;-66
2022/12/15 12:52:00;;;;;;;25.13;17.00;;;5.80;99.90;;;;;;5053005;28;20210;-65
2022/12/15 12:54:47;;;;;;;25.33;17.13;;;6.00;99.90;;;;;;5052493;28;20221;-66
2022/12/15 12:57:32;;;;;;;23.67;16.40;;;5.90;99.90;;;;;;5052476;28;20709;-65
2022/12/15 13:00:01;;;;;;;23.47;15.60;;;5.80;99.90;;;;;;5052515;28;20221;-65
2022/12/15 13:02:46;;;;;;;24.80;16.20;;;5.60;99.90;;;;;;5052801;28;20209;-65
2022/12/15 13:05:29;;;;;;;22.37;15.20;;;5.50;99.90;;;;;;5053091;28;20209;-65
2022/12/15 13:08:12;;;;;;;23.97;16.20;;;5.40;99.90;;;;;;5053050;28;20225;-65
2022/12/15 13:10:40;;;;;;;24.53;16.40;;;5.50;99.90;;;;;;5051344;28;20205;-65
2022/12/15 13:13:37;;;;;;;24.87;16.00;;;5.60;99.90;;;;;;5051929;28;20673;-65
2022/12/15 13:16:10;;;;;;;23.17;15.70;;;5.90;99.90;;;;;;5052505;28;20209;-66
2022/12/15 13:18:56;;;;;;;23.43;15.40;;;6.20;99.90;;;;;;5052530;28;20229;-64
2022/12/15 13:21:51;;;;;;;23.33;16.33;;;6.30;99.90;;;;;;5051463;28;20711;-65
2022/12/15 13:24:34;;;;;;;25.13;16.83;;;6.30;99.90;;;;;;5052515;28;20296;-65
2022/12/15 13:27:12;;;;;;;26.80;16.37;;;6.30;99.90;;;;;;5052073;28;20721;-65
2022/12/15 13:29:57;;;;;;;26.13;16.50;;;6.30;99.90;;;;;;5051402;28;20590;-65
2022/12/15 13:32:33;;;;;;;23.47;17.27;;;6.20;99.90;;;;;;5052350;28;20205;-67
2022/12/15 13:35:22;;;;;;;23.70;15.67;;;6.00;99.90;;;;;;5052410;28;20205;-65
2022/12/15 13:37:51;;;;;;;22.73;15.83;;;5.80;99.90;;;;;;5075433;22;20240;-55
2022/12/15 13:40:32;;;;;;;26.23;16.40;;;5.80;99.90;;;;;;5042795;28;20601;-55
2022/12/15 13:43:06;;;;;;;24.90;17.03;;;5.60;99.90;;;;;;5052286;28;20692;-55
2022/12/15 13:45:53;;;;;;;25.77;15.57;;;5.50;99.90;;;;;;5052091;28;20308;-55
2022/12/15 13:48:31;;;;;;;24.10;16.07;;;5.50;99.90;;;;;;5051870;28;20229;-56
2022/12/15 13:51:04;;;;;;;23.43;15.47;;;5.40;99.90;;;;;;5051999;28;20205;-56
2022/12/15 13:53:38;;;;;;;24.97;16.43;;;5.30;99.90;;;;;;5052256;28;20214;-56
2022/12/15 13:56:32;;;;;;;24.83;16.93;;;5.10;99.90;;;;;;5051992;28;20262;-56
2022/12/15 13:59:05;;;;;;;23.70;16.97;;;5.10;99.90;;;;;;5051768;28;20210;-56
2022/12/15 14:01:33;;;;;;;29.83;19.13;;;5.00;99.90;;;;;;5051148;28;20693;-56
2022/12/15 14:04:06;;;;;;;42.80;30.30;;;4.90;99.90;;;;;;5051821;28;20210;-56
2022/12/15 14:06:40;;;;;;;71.97;60.70;;;5.00;99.90;;;;;;5051424;28;20660;-56
2022/12/15 14:09:13;;;;;;;29.53;19.07;;;5.00;99.90;;;;;;5053751;28;20673;-57
2022/12/15 14:11:42;;;;;;;26.30;17.90;;;5.10;99.90;;;;;;5055184;28;20208;-57
2022/12/15 14:14:16;;;;;;;24.57;14.83;;;5.10;99.90;;;;;;5055740;28;20581;-56
2022/12/15 14:16:45;;;;;;;24.77;16.10;;;5.10;99.90;;;;;;5054485;28;20209;-57
2022/12/15 14:19:17;;;;;;;23.40;15.63;;;5.20;99.90;;;;;;5055413;28;20205;-57
2022/12/15 14:21:49;;;;;;;22.37;16.00;;;5.30;99.90;;;;;;5054631;28;20304;-56
2022/12/15 14:24:28;;;;;;;26.50;15.90;;;5.30;99.90;;;;;;5055555;28;20233;-56
2022/12/15 14:26:56;;;;;;;25.03;15.67;;;5.40;99.90;;;;;;5055188;28;20248;-56
2022/12/15 14:29:23;;;;;;;21.50;15.33;;;5.30;99.90;;;;;;5055193;28;20206;-57
2022/12/15 14:31:55;;;;;;;23.93;16.83;;;5.20;99.90;;;;;;5055263;28;20201;-56
2022/12/15 14:34:26;;;;;;;24.50;16.23;;;5.10;99.90;;;;;;5055587;28;20205;-56
2022/12/15 14:36:55;;;;;;;22.57;15.60;;;5.00;99.90;;;;;;5055143;28;20237;-56
2022/12/15 14:39:26;;;;;;;23.10;15.77;;;5.00;99.90;;;;;;5055162;28;20212;-56
2022/12/15 14:41:56;;;;;;;24.00;17.17;;;5.00;99.90;;;;;;5054759;28;20236;-56
2022/12/15 14:44:29;;;;;;;23.03;15.67;;;5.00;99.90;;;;;;5055092;28;20201;-56
2022/12/15 14:46:58;;;;;;;23.53;15.23;;;5.00;99.90;;;;;;5054760;28;20253;-56
2022/12/15 14:49:29;;;;;;;22.47;14.97;;;5.00;99.90;;;;;;5055039;28;20221;-55
2022/12/15 14:51:59;;;;;;;23.00;14.57;;;5.00;99.90;;;;;;5055189;28;20209;-56
2022/12/15 14:54:29;;;;;;;26.07;15.63;;;4.90;99.90;;;;;;5055318;28;20228;-56
2022/12/15 14:56:59;;;;;;;34.60;20.80;;;4.60;99.90;;;;;;5054785;28;20233;-56
2022/12/15 14:59:32;;;;;;;50.17;28.00;;;4.30;99.90;;;;;;5054868;28;20275;-56
2022/12/15 15:02:10;;;;;;;30.37;18.73;;;4.20;99.90;;;;;;5054778;28;20299;-58
2022/12/15 15:04:37;;;;;;;24.43;14.80;;;4.10;99.90;;;;;;5054793;28;20292;-56
2022/12/15 15:07:06;;;;;;;17.97;13.20;;;4.10;99.90;;;;;;5054528;28;20233;-56
2022/12/15 15:09:38;;;;;;;21.33;13.47;;;4.00;99.90;;;;;;5053871;28;20209;-56
2022/12/15 15:12:08;;;;;;;20.43;13.67;;;4.10;99.90;;;;;;5054891;28;20213;-56
2022/12/15 15:14:42;;;;;;;20.57;13.57;;;4.10;99.90;;;;;;5054673;28;20206;-56
2022/12/15 15:17:21;;;;;;;20.53;13.73;;;4.10;99.90;;;;;;5054468;28;20229;-56
2022/12/15 15:19:51;;;;;;;20.30;14.00;;;4.20;99.90;;;;;;5053164;28;20205;-56
2022/12/15 15:22:30;;;;;;;19.30;13.37;;;4.20;99.90;;;;;;5054377;28;20697;-56